Time;durP1;ratioP1;P1;durP2;ratioP2;P2;SDS_P1;SDS_P2;PMS_P1;PMS_P2;Temp;Humidity;BMP_temperature;BMP_pressure;BME280_temperature;BME280_humidity;BME280_pressure;Samples;Min_cycle;Max_cycle;Signal;HPM_P1;HPM_P2
2023/06/22 00:01:14;;;;;;;7.55;5.40;;;;;;;22.97;77.48;100528.69;4965777;28;20229;-68
2023/06/22 00:03:40;;;;;;;7.03;5.32;;;;;;;22.91;77.80;100534.31;4968452;28;20681;-68
2023/06/22 00:06:07;;;;;;;5.72;4.95;;;;;;;22.86;78.74;100544.41;4969597;28;20587;-69
2023/06/22 00:08:33;;;;;;;8.30;5.43;;;;;;;22.84;78.93;100552.56;4972924;28;20733;-69
2023/06/22 00:11:00;;;;;;;7.43;6.35;;;;;;;23.02;79.17;100568.13;4987707;28;20291;-69
2023/06/22 00:13:26;;;;;;;7.22;5.90;;;;;;;22.94;78.96;100572.91;4987616;28;20224;-69
2023/06/22 00:15:52;;;;;;;6.57;5.65;;;;;;;22.91;79.13;100583.81;4984926;28;20197;-69
2023/06/22 00:18:20;;;;;;;10.55;5.82;;;;;;;22.92;79.77;100592.81;4985387;28;20246;-69
2023/06/22 00:20:46;;;;;;;6.90;5.32;;;;;;;22.91;80.17;100588.34;4979577;28;20197;-68
2023/06/22 00:23:13;;;;;;;7.22;5.63;;;;;;;22.96;81.22;100583.66;4985009;28;20199;-68
2023/06/22 00:25:40;;;;;;;6.45;5.22;;;;;;;22.86;82.96;100585.81;4988045;28;20220;-68
2023/06/22 00:28:07;;;;;;;7.05;5.43;;;;;;;22.79;84.17;100579.66;4987756;28;20231;-68
2023/06/22 00:30:34;;;;;;;7.30;5.72;;;;;;;22.72;85.77;100570.00;4982263;28;20228;-69
2023/06/22 00:33:01;;;;;;;8.50;5.63;;;;;;;22.66;85.42;100572.03;4987144;28;20221;-69
2023/06/22 00:35:29;;;;;;;8.35;6.20;;;;;;;22.64;87.01;100576.59;4982422;28;20669;-69
2023/06/22 00:38:04;;;;;;;10.05;6.47;;;;;;;22.61;86.99;100587.50;4988555;28;20827;-69
2023/06/22 00:40:31;;;;;;;10.63;6.00;;;;;;;22.55;92.75;100587.72;4988502;28;20287;-69
2023/06/22 00:42:59;;;;;;;8.93;6.40;;;;;;;22.48;91.89;100603.22;4988110;28;20197;-69
2023/06/22 00:45:26;;;;;;;7.93;6.10;;;;;;;22.55;92.87;100628.22;4986437;28;20582;-69
2023/06/22 00:47:56;;;;;;;8.73;6.63;;;;;;;22.50;94.21;100639.16;4987059;28;20364;-70
2023/06/22 00:50:26;;;;;;;8.52;6.65;;;;;;;22.44;96.30;100660.94;4987440;28;20250;-69
2023/06/22 00:52:56;;;;;;;10.10;6.60;;;;;;;22.22;99.62;100665.22;4983376;28;20223;-70
2023/06/22 00:55:23;;;;;;;7.55;6.53;;;;;;;22.03;100.00;100673.88;4985604;28;20254;-70
2023/06/22 00:57:50;;;;;;;10.98;7.07;;;;;;;21.90;100.00;100683.19;4985258;28;20216;-70
2023/06/22 01:00:19;;;;;;;8.05;7.03;;;;;;;21.83;100.00;100695.06;4968820;28;20198;-70
2023/06/22 01:02:46;;;;;;;6.97;5.90;;;;;;;21.75;100.00;100686.31;4988187;28;20193;-70
2023/06/22 01:05:14;;;;;;;9.40;7.07;;;;;;;21.73;100.00;100701.66;4987973;28;20205;-70
2023/06/22 01:08:03;;;;;;;9.00;7.15;;;;;;;21.71;100.00;100676.56;4981220;28;20256;-69
2023/06/22 01:10:51;;;;;;;10.43;6.95;;;;;;;21.62;100.00;100622.91;4988690;28;20233;-69
2023/06/22 01:13:25;;;;;;;10.55;7.85;;;;;;;21.48;100.00;100572.94;4987156;28;20220;-69
2023/06/22 01:15:59;;;;;;;14.07;8.05;;;;;;;21.26;100.00;100561.03;4982314;28;20291;-68
2023/06/22 01:18:28;;;;;;;12.30;8.18;;;;;;;21.03;100.00;100539.16;4983640;28;20237;-68
2023/06/22 01:20:57;;;;;;;11.13;8.00;;;;;;;20.80;100.00;100520.91;4988847;28;20622;-68
2023/06/22 01:23:48;;;;;;;13.35;8.40;;;;;;;20.56;100.00;100526.03;4987699;28;20276;-68
2023/06/22 01:26:27;;;;;;;11.98;8.90;;;;;;;20.40;100.00;100543.47;4985834;28;20295;-68
2023/06/22 01:28:56;;;;;;;11.95;8.45;;;;;;;20.31;100.00;100557.09;4983726;28;20301;-68
2023/06/22 01:31:26;;;;;;;12.35;9.00;;;;;;;20.15;100.00;100553.03;4989749;28;20578;-68
2023/06/22 01:33:59;;;;;;;12.02;8.90;;;;;;;20.04;100.00;100564.03;4973800;28;20704;-69
2023/06/22 01:36:26;;;;;;;13.07;9.13;;;;;;;19.97;100.00;100567.75;4991417;28;20297;-69
2023/06/22 01:38:53;;;;;;;11.52;8.85;;;;;;;19.91;100.00;100581.31;4991016;28;20224;-69
2023/06/22 01:41:20;;;;;;;14.33;9.40;;;;;;;19.86;100.00;100594.88;4987503;28;20656;-69
2023/06/22 01:43:48;;;;;;;13.37;9.40;;;;;;;19.84;100.00;100599.41;4992379;28;20197;-69
2023/06/22 01:46:15;;;;;;;12.68;9.38;;;;;;;19.88;100.00;100592.16;4991353;28;20205;-69
2023/06/22 01:48:41;;;;;;;11.93;9.50;;;;;;;19.84;100.00;100577.00;4990686;28;20217;-69
2023/06/22 01:51:08;;;;;;;13.10;9.70;;;;;;;19.77;100.00;100545.81;4988162;28;20208;-69
2023/06/22 01:53:34;;;;;;;14.68;10.02;;;;;;;19.75;100.00;100527.03;4988714;28;20217;-69
2023/06/22 01:56:00;;;;;;;12.13;9.90;;;;;;;19.75;100.00;100535.09;4972238;28;20204;-69
2023/06/22 01:58:29;;;;;;;13.02;9.75;;;;;;;19.75;100.00;100544.97;4990303;28;20279;-69
2023/06/22 02:01:09;;;;;;;12.10;9.57;;;;;;;19.70;100.00;100551.31;4982218;28;20208;-69
2023/06/22 02:03:41;;;;;;;11.20;9.40;;;;;;;19.72;100.00;100535.16;4989407;28;20203;-69
2023/06/22 02:06:11;;;;;;;14.10;9.93;;;;;;;19.74;100.00;100537.81;4989091;28;20197;-69
2023/06/22 02:08:44;;;;;;;14.02;10.15;;;;;;;19.70;100.00;100537.88;4989094;28;20232;-68
2023/06/22 02:11:14;;;;;;;12.23;9.65;;;;;;;19.74;100.00;100529.75;4984504;28;20681;-69
2023/06/22 02:13:42;;;;;;;17.20;10.15;;;;;;;19.72;100.00;100543.22;4989711;28;20217;-69
2023/06/22 02:16:12;;;;;;;13.85;10.45;;;;;;;19.68;100.00;100544.22;4983454;28;20205;-69
2023/06/22 02:18:40;;;;;;;13.52;10.13;;;;;;;19.67;100.00;100547.81;4988486;28;20700;-69
2023/06/22 02:21:06;;;;;;;13.85;10.02;;;;;;;19.71;100.00;100560.28;4991034;28;20574;-69
2023/06/22 02:23:35;;;;;;;13.70;10.40;;;;;;;19.68;100.00;100563.03;4989622;28;20287;-69
2023/06/22 02:26:03;;;;;;;12.43;9.95;;;;;;;19.72;100.00;100559.34;4983685;28;20247;-69
2023/06/22 02:28:29;;;;;;;13.93;11.20;;;;;;;19.75;100.00;100571.84;4985633;28;20217;-69
2023/06/22 02:30:58;;;;;;;14.50;11.05;;;;;;;19.69;100.00;100586.28;4989428;28;20201;-70
2023/06/22 02:33:24;;;;;;;14.85;10.32;;;;;;;19.67;100.00;100591.69;4987697;28;20590;-69
2023/06/22 02:35:50;;;;;;;15.00;11.15;;;;;;;19.66;100.00;100562.19;4983883;28;20664;-69
2023/06/22 02:38:17;;;;;;;13.10;10.40;;;;;;;19.69;100.00;100543.28;4987100;28;20256;-69
2023/06/22 02:40:44;;;;;;;12.75;10.05;;;;;;;19.67;100.00;100529.91;4989455;28;20197;-69
2023/06/22 02:43:10;;;;;;;14.48;10.55;;;;;;;19.64;100.00;100512.97;4988644;28;20208;-69
2023/06/22 02:45:36;;;;;;;12.85;10.52;;;;;;;19.69;100.00;100505.69;4980978;28;20680;-69
2023/06/22 02:48:03;;;;;;;13.45;10.48;;;;;;;19.71;100.00;100499.34;4984690;28;20275;-69
2023/06/22 02:50:30;;;;;;;15.90;11.18;;;;;;;19.75;100.00;100505.53;4989718;28;20234;-69
2023/06/22 02:52:58;;;;;;;13.57;10.20;;;;;;;19.73;100.00;100506.50;4990453;28;20253;-69
2023/06/22 02:55:24;;;;;;;13.77;11.40;;;;;;;19.91;100.00;100501.56;4989498;28;20201;-69
2023/06/22 02:57:52;;;;;;;15.75;10.80;;;;;;;19.89;100.00;100503.41;4983570;28;20724;-69
2023/06/22 03:00:19;;;;;;;13.18;10.70;;;;;;;19.76;100.00;100514.47;4981687;28;20654;-69
2023/06/22 03:02:47;;;;;;;13.98;10.77;;;;;;;19.64;100.00;100508.47;4990059;28;20244;-69
2023/06/22 03:05:17;;;;;;;12.70;9.90;;;;;;;19.57;100.00;100504.13;4983339;28;20216;-69
2023/06/22 03:07:45;;;;;;;12.13;9.85;;;;;;;19.53;100.00;100485.41;4983779;28;20225;-69
2023/06/22 03:10:12;;;;;;;15.63;10.82;;;;;;;19.60;100.00;100489.72;4990688;28;20625;-69
2023/06/22 03:12:40;;;;;;;14.82;10.90;;;;;;;19.68;100.00;100482.41;4986726;28;20198;-69
2023/06/22 03:15:08;;;;;;;14.20;10.48;;;;;;;19.58;100.00;100481.69;4988819;28;20203;-69
2023/06/22 03:17:35;;;;;;;14.70;10.85;;;;;;;19.62;100.00;100487.94;4983359;28;20580;-69
2023/06/22 03:20:10;;;;;;;13.90;11.30;;;;;;;19.72;100.00;100486.78;4989908;28;20620;-69
2023/06/22 03:22:41;;;;;;;15.40;11.60;;;;;;;19.89;100.00;100484.59;4988056;28;20307;-69
2023/06/22 03:25:15;;;;;;;14.68;11.35;;;;;;;19.83;100.00;100490.13;4980113;28;20255;-70
2023/06/22 03:27:43;;;;;;;13.95;11.10;;;;;;;19.77;100.00;100489.38;4989028;28;20303;-69
2023/06/22 03:30:11;;;;;;;14.23;11.63;;;;;;;19.81;100.00;100489.25;4987995;28;20201;-69
2023/06/22 03:32:38;;;;;;;15.75;11.45;;;;;;;19.80;100.00;100487.50;4982719;28;20292;-69
2023/06/22 03:35:06;;;;;;;14.52;10.73;;;;;;;19.81;100.00;100481.19;4985037;28;20232;-69
2023/06/22 03:37:32;;;;;;;13.85;10.25;;;;;;;19.80;100.00;100463.31;4968994;28;20644;-69
2023/06/22 03:39:58;;;;;;;14.30;10.43;;;;;;;19.82;100.00;100471.34;4986865;28;20250;-70
2023/06/22 03:42:25;;;;;;;14.20;10.57;;;;;;;19.84;100.00;100473.06;4989165;28;20292;-69
2023/06/22 03:44:52;;;;;;;15.18;10.63;;;;;;;19.86;100.00;100478.41;4986026;28;20576;-69
2023/06/22 03:47:18;;;;;;;16.33;10.40;;;;;;;19.86;100.00;100476.59;4988008;28;20205;-69
2023/06/22 03:49:45;;;;;;;14.90;11.18;;;;;;;19.89;100.00;100472.97;4988110;28;20208;-70
2023/06/22 03:52:11;;;;;;;14.38;12.02;;;;;;;19.94;100.00;100469.22;4986228;28;20292;-70
2023/06/22 03:54:37;;;;;;;14.05;10.90;;;;;;;19.99;100.00;100478.06;4987126;28;20217;-69
2023/06/22 03:57:05;;;;;;;16.08;12.02;;;;;;;20.02;100.00;100486.09;4980371;28;20204;-69
2023/06/22 03:59:32;;;;;;;15.75;11.52;;;;;;;20.17;100.00;100476.75;4984536;28;20213;-70
2023/06/22 04:01:58;;;;;;;15.45;12.32;;;;;;;20.29;100.00;100475.56;4988297;28;20196;-69
2023/06/22 04:04:25;;;;;;;12.38;9.88;;;;;;;20.22;100.00;100492.78;4988315;28;20193;-69
2023/06/22 04:06:51;;;;;;;13.07;10.13;;;;;;;20.20;100.00;100491.94;4986497;28;20692;-69
2023/06/22 04:09:18;;;;;;;14.32;11.60;;;;;;;20.21;100.00;100480.25;4982705;28;20224;-69
2023/06/22 04:11:44;;;;;;;12.13;10.43;;;;;;;20.23;100.00;100486.47;4989383;28;20728;-69
2023/06/22 04:14:11;;;;;;;14.40;10.98;;;;;;;20.23;100.00;100481.09;4988142;28;20239;-69
2023/06/22 04:16:37;;;;;;;13.82;11.65;;;;;;;20.24;100.00;100499.00;4988056;28;20204;-69
2023/06/22 04:19:03;;;;;;;13.60;10.55;;;;;;;20.26;100.00;100502.53;4987807;28;20248;-69
2023/06/22 04:21:30;;;;;;;15.45;11.55;;;;;;;20.29;100.00;100495.28;4985107;28;20203;-69
2023/06/22 04:23:56;;;;;;;14.07;10.93;;;;;;;20.30;100.00;100488.97;4985214;28;20200;-69
2023/06/22 04:26:23;;;;;;;16.65;11.60;;;;;;;20.39;100.00;100498.63;4988032;28;20696;-69
2023/06/22 04:28:55;;;;;;;13.07;10.43;;;;;;;20.38;100.00;100502.22;4988665;28;20225;-69
2023/06/22 04:31:21;;;;;;;13.52;10.75;;;;;;;20.41;100.00;100506.69;4988226;28;20280;-69
2023/06/22 04:33:48;;;;;;;13.80;10.70;;;;;;;20.50;100.00;100503.78;4983676;28;20748;-69
2023/06/22 04:36:14;;;;;;;12.98;10.65;;;;;;;20.73;100.00;100505.88;4986645;28;20204;-70
2023/06/22 04:38:42;;;;;;;12.70;9.70;;;;;;;20.73;100.00;100505.88;4988027;28;20217;-69
2023/06/22 04:41:14;;;;;;;12.98;10.10;;;;;;;20.83;100.00;100500.22;4986313;28;20239;-70
2023/06/22 04:43:40;;;;;;;16.15;10.90;;;;;;;20.91;100.00;100506.28;4984325;28;20308;-70
2023/06/22 04:46:06;;;;;;;13.50;11.43;;;;;;;20.96;100.00;100503.44;4988652;28;20641;-69
2023/06/22 04:48:33;;;;;;;15.68;12.00;;;;;;;20.98;100.00;100501.59;4984404;28;20224;-70
2023/06/22 04:51:03;;;;;;;16.25;10.85;;;;;;;21.06;100.00;100494.19;4987978;28;20193;-70
2023/06/22 04:53:31;;;;;;;15.80;10.68;;;;;;;21.06;100.00;100494.19;4986737;28;20259;-69
2023/06/22 04:55:57;;;;;;;13.00;10.43;;;;;;;21.14;100.00;100507.44;4985794;28;20651;-70
2023/06/22 04:58:28;;;;;;;12.85;10.43;;;;;;;21.17;100.00;100496.56;4986816;28;20579;-69
2023/06/22 05:00:56;;;;;;;13.25;11.23;;;;;;;21.20;100.00;100499.16;4988366;28;20283;-69
2023/06/22 05:03:26;;;;;;;14.23;10.80;;;;;;;21.25;100.00;100494.59;4987880;28;20730;-69
2023/06/22 05:05:53;;;;;;;14.13;11.23;;;;;;;21.32;100.00;100503.38;4985229;28;20565;-69
2023/06/22 05:08:19;;;;;;;16.13;10.27;;;;;;;21.39;100.00;100499.56;4980969;28;20236;-69
2023/06/22 05:10:46;;;;;;;20.88;11.25;;;;;;;21.47;100.00;100500.22;4977754;28;20270;-69
2023/06/22 05:13:29;;;;;;;14.55;9.57;;;;;;;21.56;100.00;100500.84;4982534;28;20221;-69
2023/06/22 05:16:00;;;;;;;15.57;10.05;;;;;;;21.63;100.00;100498.88;4974746;28;20193;-69
2023/06/22 05:18:29;;;;;;;13.15;10.35;;;;;;;21.84;100.00;100497.31;4976344;28;20223;-69
2023/06/22 05:20:56;;;;;;;14.85;9.82;;;;;;;21.81;100.00;100490.19;4978558;28;20198;-69
2023/06/22 05:23:23;;;;;;;15.18;10.52;;;;;;;21.84;100.00;100483.81;4971171;28;20201;-69
2023/06/22 05:25:51;;;;;;;12.10;9.55;;;;;;;21.85;100.00;100489.16;4976230;28;20619;-69
2023/06/22 05:28:35;;;;;;;13.35;9.95;;;;;;;22.00;100.00;100482.41;4978072;28;20216;-69
2023/06/22 05:31:20;;;;;;;19.65;10.50;;;;;;;22.29;100.00;100475.22;4975084;28;20271;-69
2023/06/22 05:33:47;;;;;;;19.48;11.15;;;;;;;22.87;100.00;100476.84;4972134;28;20287;-69
2023/06/22 05:36:14;;;;;;;13.27;9.73;;;;;;;23.06;100.00;100472.50;4975740;28;20201;-69
2023/06/22 05:38:43;;;;;;;15.60;9.90;;;;;;;23.16;100.00;100480.28;4970478;28;20213;-68
2023/06/22 05:41:09;;;;;;;12.52;9.70;;;;;;;23.30;100.00;100478.84;4962890;28;20200;-69
2023/06/22 05:43:38;;;;;;;16.10;9.90;;;;;;;23.43;100.00;100473.84;4969828;28;20670;-69
2023/06/22 05:46:05;;;;;;;19.77;10.10;;;;;;;23.58;100.00;100475.97;4967538;28;20201;-69
2023/06/22 05:48:31;;;;;;;22.58;9.70;;;;;;;23.75;100.00;100475.34;4960926;28;20278;-69
2023/06/22 05:50:58;;;;;;;15.15;10.02;;;;;;;23.98;99.25;100469.00;4963739;28;20206;-68
2023/06/22 05:53:25;;;;;;;18.38;9.75;;;;;;;24.15;98.27;100474.63;4968211;28;20208;-68
2023/06/22 05:55:51;;;;;;;15.40;9.60;;;;;;;24.18;98.07;100477.19;4971896;28;20202;-68
2023/06/22 05:58:18;;;;;;;13.98;9.63;;;;;;;24.38;95.81;100479.97;4962567;28;20221;-69
2023/06/22 06:00:44;;;;;;;11.57;9.25;;;;;;;24.28;95.01;100477.72;4962988;28;20201;-68
2023/06/22 06:03:11;;;;;;;13.50;9.02;;;;;;;24.14;95.35;100478.28;4954535;28;20209;-69
2023/06/22 06:05:40;;;;;;;12.70;9.45;;;;;;;24.09;95.08;100479.41;4934918;28;20220;-69
2023/06/22 06:08:07;;;;;;;11.82;8.95;;;;;;;24.17;96.04;100479.97;4978074;28;20232;-69
2023/06/22 06:10:33;;;;;;;12.82;9.57;;;;;;;24.33;94.58;100476.59;4992107;28;20203;-69
2023/06/22 06:13:02;;;;;;;12.73;8.90;;;;;;;24.41;94.71;100472.66;4992276;28;20691;-69
2023/06/22 06:15:28;;;;;;;16.95;9.05;;;;;;;24.48;93.97;100474.19;4991428;28;20613;-69
2023/06/22 06:17:55;;;;;;;11.55;8.60;;;;;;;24.61;94.83;100478.13;4986473;28;20229;-70
2023/06/22 06:20:23;;;;;;;12.63;9.20;;;;;;;24.79;91.97;100480.03;4988260;28;20268;-69
2023/06/22 06:22:50;;;;;;;11.82;8.30;;;;;;;25.08;91.23;100475.19;4987254;28;20211;-69
2023/06/22 06:25:18;;;;;;;12.75;8.43;;;;;;;25.33;88.23;100475.84;4990651;28;20197;-69
2023/06/22 06:27:46;;;;;;;13.93;8.68;;;;;;;25.48;86.97;100474.25;4989233;28;20217;-69
2023/06/22 06:30:14;;;;;;;13.07;8.65;;;;;;;25.65;85.85;100465.34;4992004;28;20205;-69
2023/06/22 06:32:41;;;;;;;15.90;8.77;;;;;;;25.53;84.70;100478.50;4990699;28;20201;-69
2023/06/22 06:35:09;;;;;;;12.23;9.23;;;;;;;25.62;83.98;100466.38;4992406;28;20240;-69
2023/06/22 06:37:37;;;;;;;12.60;8.82;;;;;;;25.65;83.10;100471.63;4990986;28;20213;-69
2023/06/22 06:40:08;;;;;;;14.15;8.27;;;;;;;25.76;82.66;100463.03;4989418;28;20220;-69
2023/06/22 06:42:35;;;;;;;12.43;8.32;;;;;;;25.78;82.46;100463.81;4991228;28;20200;-69
2023/06/22 06:45:01;;;;;;;12.15;8.73;;;;;;;25.83;82.62;100457.22;4978764;28;20193;-70
2023/06/22 06:47:27;;;;;;;13.75;8.77;;;;;;;25.88;81.79;100451.56;4989283;28;20229;-69
2023/06/22 06:49:54;;;;;;;11.30;8.18;;;;;;;26.06;80.72;100452.50;4991760;28;20212;-71
2023/06/22 06:52:20;;;;;;;12.30;9.00;;;;;;;26.16;80.84;100453.81;4991346;28;20204;-68
2023/06/22 06:54:47;;;;;;;11.68;8.85;;;;;;;26.32;80.06;100460.22;4990664;28;20224;-68
2023/06/22 06:57:14;;;;;;;12.63;8.65;;;;;;;26.48;79.81;100460.38;4989023;28;20211;-68
2023/06/22 06:59:41;;;;;;;17.60;8.65;;;;;;;26.50;77.99;100464.75;4991222;28;20201;-69
2023/06/22 07:02:07;;;;;;;10.95;8.50;;;;;;;26.34;77.78;100463.75;4991384;28;20208;-68
2023/06/22 07:04:34;;;;;;;13.10;7.82;;;;;;;26.62;78.20;100454.22;4989242;28;20192;-68
2023/06/22 07:07:02;;;;;;;15.07;8.15;;;;;;;27.00;76.17;100449.50;4990881;28;20284;-68
2023/06/22 07:09:29;;;;;;;13.77;8.75;;;;;;;27.43;74.68;100462.53;4990889;28;20228;-69
2023/06/22 07:11:55;;;;;;;17.58;8.30;;;;;;;28.78;69.46;100454.75;4991546;28;20676;-68
2023/06/22 07:14:21;;;;;;;13.27;8.27;;;;;;;30.54;61.74;100457.03;4988304;28;20585;-69
2023/06/22 07:16:47;;;;;;;10.68;8.20;;;;;;;31.81;54.83;100458.16;4985543;28;20546;-68
2023/06/22 07:19:14;;;;;;;16.20;8.15;;;;;;;32.48;52.32;100447.63;4991234;28;20231;-68
2023/06/22 07:21:40;;;;;;;10.90;7.97;;;;;;;32.95;49.85;100450.31;4991494;28;20598;-68
2023/06/22 07:24:07;;;;;;;14.30;8.50;;;;;;;33.67;46.25;100443.69;4989034;28;20203;-68
2023/06/22 07:26:34;;;;;;;10.18;7.45;;;;;;;34.71;42.82;100442.19;4991197;28;20208;-68
2023/06/22 07:29:00;;;;;;;9.80;7.68;;;;;;;34.06;44.46;100445.91;4991064;28;20221;-70
2023/06/22 07:31:26;;;;;;;10.90;8.20;;;;;;;33.67;44.70;100440.94;4990544;28;20251;-69
2023/06/22 07:33:53;;;;;;;11.05;7.75;;;;;;;33.84;43.67;100435.81;4988354;28;20715;-73
2023/06/22 07:36:19;;;;;;;13.32;8.63;;;;;;;32.86;46.14;100434.56;4986372;28;20203;-74
2023/06/22 07:38:46;;;;;;;11.55;8.23;;;;;;;32.97;45.33;100429.09;4991603;28;20220;-73
2023/06/22 07:41:12;;;;;;;10.55;7.57;;;;;;;33.33;44.38;100429.94;4988741;28;20804;-73
2023/06/22 07:43:39;;;;;;;10.90;8.30;;;;;;;33.15;45.60;100424.00;4990805;28;20204;-73
2023/06/22 07:46:06;;;;;;;12.68;8.45;;;;;;;33.46;44.15;100427.06;4990729;28;20588;-73
2023/06/22 07:48:32;;;;;;;9.68;8.00;;;;;;;33.21;45.05;100422.63;4990786;28;20217;-74
2023/06/22 07:50:58;;;;;;;10.43;7.95;;;;;;;33.73;43.92;100423.94;4990206;28;20220;-73
2023/06/22 07:53:25;;;;;;;10.98;8.18;;;;;;;33.42;44.16;100412.72;4990078;28;20197;-73
2023/06/22 07:55:51;;;;;;;11.27;8.57;;;;;;;34.10;42.82;100411.66;4990520;28;20220;-73
2023/06/22 07:58:18;;;;;;;11.43;8.80;;;;;;;34.52;41.74;100417.28;4972936;28;20223;-73
2023/06/22 08:00:45;;;;;;;10.77;8.35;;;;;;;35.11;40.64;100422.19;4984912;28;20232;-71
2023/06/22 08:03:14;;;;;;;13.70;8.75;;;;;;;34.44;41.12;100417.94;4986222;28;20236;-71
2023/06/22 08:05:40;;;;;;;14.52;8.73;;;;;;;33.32;43.61;100411.72;4985452;28;20193;-72
2023/06/22 08:08:07;;;;;;;12.35;8.48;;;;;;;32.94;45.32;100412.88;4989109;28;20251;-71
2023/06/22 08:10:34;;;;;;;17.40;9.38;;;;;;;33.74;43.75;100414.69;4971760;28;20565;-73
2023/06/22 08:13:00;;;;;;;11.00;8.48;;;;;;;34.25;42.11;100409.47;4985240;28;20207;-73
2023/06/22 08:15:27;;;;;;;11.43;8.68;;;;;;;34.24;42.45;100402.22;4989289;28;20239;-72
2023/06/22 08:17:54;;;;;;;10.48;8.60;;;;;;;32.88;45.00;100407.03;4984074;28;20595;-71
2023/06/22 08:20:20;;;;;;;14.57;8.55;;;;;;;32.92;45.82;100401.16;4987568;28;20224;-74
2023/06/22 08:22:47;;;;;;;13.10;9.70;;;;;;;32.96;45.45;100393.56;4986339;28;20288;-72
2023/06/22 08:25:13;;;;;;;12.65;9.10;;;;;;;32.57;46.26;100390.19;4984423;28;20572;-72
2023/06/22 08:27:40;;;;;;;26.23;9.95;;;;;;;32.39;46.75;100388.84;4986519;28;20731;-70
2023/06/22 08:30:07;;;;;;;12.82;8.55;;;;;;;32.39;46.99;100380.63;4986389;28;20208;-71
2023/06/22 08:32:33;;;;;;;14.15;8.68;;;;;;;31.65;48.95;100392.66;4984205;28;20206;-70
2023/06/22 08:35:00;;;;;;;14.13;9.95;;;;;;;31.45;49.48;100386.75;4982976;28;20221;-70
2023/06/22 08:37:30;;;;;;;11.02;9.20;;;;;;;31.47;49.87;100393.00;4982078;28;20203;-72
2023/06/22 08:39:59;;;;;;;11.07;9.07;;;;;;;30.97;51.09;100398.50;4983532;28;20208;-71
2023/06/22 08:42:26;;;;;;;12.32;9.52;;;;;;;30.65;52.24;100390.69;4990355;28;20219;-70
2023/06/22 08:44:53;;;;;;;12.52;9.40;;;;;;;30.56;52.25;100374.91;4987052;28;20300;-70
2023/06/22 08:47:21;;;;;;;16.05;9.40;;;;;;;30.86;52.12;100366.44;4991417;28;20201;-71
2023/06/22 08:49:47;;;;;;;12.18;9.25;;;;;;;30.51;52.88;100356.09;4992139;28;20216;-74
2023/06/22 08:52:14;;;;;;;15.80;10.38;;;;;;;29.75;55.38;100354.94;4987553;28;20201;-70
2023/06/22 08:54:40;;;;;;;11.93;9.60;;;;;;;29.65;56.38;100357.44;4989815;28;20212;-70
2023/06/22 08:57:06;;;;;;;15.02;9.50;;;;;;;30.08;55.05;100358.19;4991280;28;20200;-70
2023/06/22 08:59:33;;;;;;;14.27;9.07;;;;;;;30.33;54.64;100361.94;4987093;28;20192;-70
2023/06/22 09:01:59;;;;;;;11.30;9.13;;;;;;;30.75;52.84;100366.31;4988522;28;20580;-70
2023/06/22 09:04:26;;;;;;;12.93;9.20;;;;;;;31.08;51.98;100363.03;4988298;28;20201;-73
2023/06/22 09:06:52;;;;;;;11.60;8.80;;;;;;;31.66;50.11;100365.16;4986862;28;20296;-70
2023/06/22 09:09:21;;;;;;;10.40;9.23;;;;;;;31.82;49.66;100358.53;4987914;28;20728;-71
2023/06/22 09:11:47;;;;;;;14.60;9.05;;;;;;;31.87;49.24;100353.59;4986528;28;20201;-71
2023/06/22 09:14:14;;;;;;;12.02;8.35;;;;;;;32.31;48.86;100336.50;4986080;28;20701;-71
2023/06/22 09:16:40;;;;;;;15.05;9.43;;;;;;;32.01;48.35;100347.91;4988206;28;20229;-74
2023/06/22 09:19:07;;;;;;;11.13;9.82;;;;;;;31.22;50.85;100342.88;4988255;28;20224;-71
2023/06/22 09:21:33;;;;;;;13.23;9.48;;;;;;;30.88;52.09;100349.91;4989391;28;20216;-71
2023/06/22 09:24:00;;;;;;;13.55;9.60;;;;;;;31.00;52.52;100340.81;4988171;28;20634;-71
2023/06/22 09:26:26;;;;;;;14.05;10.18;;;;;;;30.93;52.13;100340.41;4990513;28;20655;-72
2023/06/22 09:28:53;;;;;;;15.45;10.15;;;;;;;30.85;52.23;100330.00;4986374;28;20225;-71
2023/06/22 09:31:25;;;;;;;11.75;8.90;;;;;;;31.39;51.24;100320.66;4988018;28;20212;-71
2023/06/22 09:33:55;;;;;;;18.67;9.90;;;;;;;31.86;50.05;100322.56;4987654;28;20193;-72
2023/06/22 09:36:21;;;;;;;12.85;9.05;;;;;;;32.27;47.89;100324.91;4989102;28;20221;-72
2023/06/22 09:38:49;;;;;;;31.67;11.65;;;;;;;32.56;47.33;100332.72;4974675;28;20216;-71
2023/06/22 09:41:15;;;;;;;15.35;9.48;;;;;;;32.41;46.58;100329.28;4988972;28;20201;-70
2023/06/22 09:43:42;;;;;;;13.45;8.98;;;;;;;32.52;47.35;100323.88;4990510;28;20204;-71
2023/06/22 09:46:09;;;;;;;16.65;9.95;;;;;;;32.88;46.65;100327.44;4985493;28;20212;-71
2023/06/22 09:48:35;;;;;;;11.43;9.48;;;;;;;32.98;45.53;100306.50;4988107;28;20696;-71
2023/06/22 09:51:04;;;;;;;10.63;9.52;;;;;;;33.15;45.25;100297.75;4988936;28;20233;-73
2023/06/22 09:53:30;;;;;;;15.07;9.18;;;;;;;33.36;44.51;100306.13;4988965;28;20200;-71
2023/06/22 09:55:57;;;;;;;13.70;9.13;;;;;;;33.43;44.50;100301.00;4989793;28;20224;-71
2023/06/22 09:58:24;;;;;;;15.55;9.15;;;;;;;33.31;44.60;100298.28;4988237;28;20585;-73
2023/06/22 10:00:50;;;;;;;11.55;8.32;;;;;;;33.07;45.31;100294.75;4990462;28;20205;-71
2023/06/22 10:03:16;;;;;;;11.55;9.10;;;;;;;32.70;46.20;100283.09;4985699;28;20461;-71
2023/06/22 10:05:43;;;;;;;11.15;9.52;;;;;;;32.53;46.46;100275.38;4983316;28;20202;-71
2023/06/22 10:08:12;;;;;;;12.23;9.13;;;;;;;32.63;47.19;100266.28;4988159;28;20245;-71
2023/06/22 10:10:39;;;;;;;12.15;9.05;;;;;;;32.64;47.00;100278.13;4987378;28;20197;-72
2023/06/22 10:13:12;;;;;;;12.70;9.10;;;;;;;32.26;47.28;100276.56;4990146;28;20741;-71
2023/06/22 10:15:39;;;;;;;13.75;8.50;;;;;;;32.16;47.23;100282.84;4980167;28;20224;-71
2023/06/22 10:18:05;;;;;;;10.15;9.05;;;;;;;31.99;47.72;100279.53;4982596;28;20236;-72
2023/06/22 10:20:32;;;;;;;11.45;8.52;;;;;;;32.44;47.17;100262.41;4983357;28;20228;-74
2023/06/22 10:22:58;;;;;;;10.80;8.50;;;;;;;32.70;46.25;100250.19;4982978;28;20676;-73
2023/06/22 10:25:26;;;;;;;11.88;8.50;;;;;;;33.12;45.16;100240.34;4982950;28;20197;-72
2023/06/22 10:27:53;;;;;;;13.88;9.20;;;;;;;33.71;43.75;100239.13;4984984;28;20212;-72
2023/06/22 10:30:20;;;;;;;12.55;8.60;;;;;;;34.24;42.35;100242.75;4985157;28;20241;-72
2023/06/22 10:32:46;;;;;;;12.20;8.77;;;;;;;34.46;42.29;100241.75;4984100;28;20204;-75
2023/06/22 10:35:15;;;;;;;14.43;8.60;;;;;;;33.99;41.49;100227.50;4969235;28;20731;-74
2023/06/22 10:37:46;;;;;;;11.02;9.30;;;;;;;33.99;42.46;100227.50;4986027;28;20217;-72
2023/06/22 10:40:13;;;;;;;10.85;8.45;;;;;;;34.35;41.38;100212.44;4982578;28;20197;-74
2023/06/22 10:42:40;;;;;;;12.05;8.45;;;;;;;34.05;40.90;100205.00;4981563;28;20239;-72
2023/06/22 10:45:07;;;;;;;13.77;8.63;;;;;;;33.54;42.80;100196.59;4982557;28;20205;-77
2023/06/22 10:47:35;;;;;;;13.18;8.55;;;;;;;33.51;42.82;100191.34;4984128;28;20307;-73
2023/06/22 10:50:02;;;;;;;11.55;8.30;;;;;;;33.31;42.82;100187.56;4979933;28;20196;-72
2023/06/22 10:52:28;;;;;;;10.82;8.23;;;;;;;33.47;42.82;100188.00;4980176;28;20207;-71
2023/06/22 10:54:55;;;;;;;10.73;7.85;;;;;;;33.59;42.08;100183.31;4978525;28;20500;-72
2023/06/22 10:57:21;;;;;;;9.32;7.90;;;;;;;33.74;41.82;100179.28;4980286;28;20197;-72
2023/06/22 10:59:48;;;;;;;14.63;8.15;;;;;;;33.79;41.50;100176.13;4981955;28;20201;-71
2023/06/22 11:02:14;;;;;;;13.20;8.27;;;;;;;33.62;40.82;100183.97;4979677;28;20197;-73
2023/06/22 11:04:41;;;;;;;9.65;7.93;;;;;;;33.88;40.84;100181.72;4984931;28;20815;-72
2023/06/22 11:07:09;;;;;;;37.08;10.98;;;;;;;34.30;39.96;100175.31;4982528;28;20561;-75
2023/06/22 11:09:35;;;;;;;21.67;9.15;;;;;;;34.76;39.43;100167.47;4976947;28;20201;-72
2023/06/22 11:12:02;;;;;;;15.52;8.02;;;;;;;34.87;38.99;100158.28;4978699;28;20669;-74
2023/06/22 11:14:28;;;;;;;13.10;8.10;;;;;;;35.11;38.46;100160.63;4980868;28;20627;-74